createdAt,value
2018-12-19T00:00:59.384Z,2.20
2018-12-19T00:03:31.766Z,2.30
2018-12-19T00:06:04.452Z,2.10
2018-12-19T00:08:34.978Z,2.30
2018-12-19T00:11:05.342Z,2.10
2018-12-19T00:13:35.702Z,2.05
2018-12-19T00:16:06.147Z,2.62
2018-12-19T00:18:36.863Z,2.30
2018-12-19T00:21:07.527Z,2.30
2018-12-19T00:23:37.882Z,2.12
2018-12-19T00:26:08.300Z,2.00
2018-12-19T00:28:40.801Z,1.95
2018-12-19T00:31:13.393Z,1.95
2018-12-19T00:33:45.972Z,1.85
2018-12-19T00:36:17.495Z,2.00
2018-12-19T00:38:47.903Z,1.90
2018-12-19T00:41:18.190Z,1.90
2018-12-19T00:43:48.547Z,1.75
2018-12-19T00:46:19.186Z,2.08
2018-12-19T00:48:49.846Z,1.70
2018-12-19T00:51:20.133Z,1.70
2018-12-19T00:53:50.486Z,1.77
2018-12-19T00:56:20.843Z,2.02
2018-12-19T00:58:51.232Z,1.80
2018-12-19T01:01:21.479Z,1.53
2018-12-19T01:03:52.111Z,1.70
2018-12-19T01:06:22.548Z,1.80
2018-12-19T01:08:52.852Z,1.70
2018-12-19T01:11:23.085Z,1.90
2018-12-19T01:13:53.498Z,1.55
2018-12-19T01:16:23.935Z,1.65
2018-12-19T01:18:54.799Z,2.00
2018-12-19T01:21:25.266Z,1.70
2018-12-19T01:23:55.621Z,1.75
2018-12-19T01:26:25.975Z,1.90
2018-12-19T01:28:56.443Z,2.15
2018-12-19T01:31:26.762Z,1.93
2018-12-19T01:33:57.345Z,1.90
2018-12-19T01:36:28.612Z,1.80
2018-12-19T01:38:58.816Z,1.87
2018-12-19T01:41:29.260Z,2.03
2018-12-19T01:43:59.796Z,1.90
2018-12-19T01:46:30.119Z,1.62
2018-12-19T01:49:00.515Z,2.02
2018-12-19T01:51:31.042Z,2.10
2018-12-19T01:54:01.605Z,1.80
2018-12-19T01:56:32.138Z,2.02
2018-12-19T01:59:02.543Z,2.00
2018-12-19T02:01:32.955Z,2.12
2018-12-19T02:04:03.232Z,2.30
2018-12-19T02:06:33.634Z,2.00
2018-12-19T02:09:05.651Z,2.08
2018-12-19T02:11:36.013Z,1.90
2018-12-19T02:14:06.489Z,1.82
2018-12-19T02:16:36.700Z,2.10
2018-12-19T02:19:08.101Z,2.10
2018-12-19T02:21:38.787Z,2.30
2018-12-19T02:24:09.114Z,2.00
2018-12-19T02:26:39.419Z,2.40
2018-12-19T02:29:09.736Z,2.20
2018-12-19T02:31:40.093Z,2.77
2018-12-19T02:34:10.578Z,2.17
2018-12-19T02:36:41.155Z,2.20
2018-12-19T02:39:11.373Z,2.10
2018-12-19T02:41:41.826Z,2.00
2018-12-19T02:44:12.187Z,2.33
2018-12-19T02:46:42.593Z,2.37
2018-12-19T02:49:12.988Z,2.12
2018-12-19T02:51:43.312Z,2.37
2018-12-19T02:54:13.791Z,2.30
2018-12-19T02:56:44.212Z,2.33
2018-12-19T02:59:14.819Z,2.45
2018-12-19T03:01:45.026Z,2.60
2018-12-19T03:04:15.375Z,2.60
2018-12-19T03:06:45.768Z,2.33
2018-12-19T03:09:16.212Z,2.27
2018-12-19T03:11:46.451Z,2.37
2018-12-19T03:14:16.877Z,2.27
2018-12-19T03:16:47.421Z,2.47
2018-12-19T03:19:18.597Z,2.52
2018-12-19T03:21:48.926Z,2.40
2018-12-19T03:24:19.416Z,2.42
2018-12-19T03:26:49.817Z,2.20
2018-12-19T03:29:20.156Z,2.02
2018-12-19T03:31:50.490Z,2.40
2018-12-19T03:34:20.800Z,2.17
2018-12-19T03:36:52.499Z,2.27
2018-12-19T03:39:23.177Z,2.40
2018-12-19T03:41:53.662Z,2.30
2018-12-19T03:44:24.070Z,2.30
2018-12-19T03:46:54.524Z,2.37
2018-12-19T03:49:25.397Z,2.62
2018-12-19T03:51:56.819Z,2.73
2018-12-19T03:54:27.346Z,2.75
2018-12-19T03:56:57.814Z,2.20
2018-12-19T03:59:28.197Z,2.15
2018-12-19T04:01:58.501Z,2.23
2018-12-19T04:04:28.940Z,2.02
2018-12-19T04:06:59.273Z,2.10
2018-12-19T04:09:29.710Z,1.90
2018-12-19T04:12:00.023Z,2.10
2018-12-19T04:14:30.433Z,2.30
2018-12-19T04:17:00.794Z,2.10
2018-12-19T04:19:32.216Z,2.17
2018-12-19T04:22:04.810Z,2.27
2018-12-19T04:24:35.226Z,2.80
2018-12-19T04:27:05.589Z,2.35
2018-12-19T04:29:36.131Z,3.08
2018-12-19T04:32:06.528Z,2.90
2018-12-19T04:34:36.860Z,2.70
2018-12-19T04:37:07.971Z,2.87
2018-12-19T04:39:38.432Z,2.98
2018-12-19T04:42:08.845Z,3.20
2018-12-19T04:44:39.191Z,3.37
2018-12-19T04:47:09.626Z,3.00
2018-12-19T04:49:39.974Z,2.90
2018-12-19T04:52:10.474Z,2.67
2018-12-19T04:54:40.806Z,3.00
2018-12-19T04:57:11.251Z,3.20
2018-12-19T04:59:41.548Z,2.80
2018-12-19T05:02:11.894Z,3.00
2018-12-19T05:04:43.425Z,2.98
2018-12-19T05:07:13.882Z,3.30
2018-12-19T05:09:45.153Z,3.10
2018-12-19T05:12:15.558Z,3.10
2018-12-19T05:14:46.352Z,3.10
2018-12-19T05:17:16.714Z,3.10
2018-12-19T05:19:48.178Z,3.80
2018-12-19T05:22:18.759Z,3.00
2018-12-19T05:24:49.055Z,3.40
2018-12-19T05:27:19.635Z,3.80
2018-12-19T05:29:50.070Z,3.50
2018-12-19T05:32:20.414Z,3.90
2018-12-19T05:34:50.824Z,3.97
2018-12-19T05:37:22.184Z,3.30
2018-12-19T05:39:52.710Z,3.70
2018-12-19T05:42:23.263Z,3.72
2018-12-19T05:44:53.516Z,3.12
2018-12-19T05:47:24.379Z,3.67
2018-12-19T05:49:55.115Z,3.80
2018-12-19T05:52:26.917Z,3.60
2018-12-19T05:54:57.423Z,3.42
2018-12-19T05:57:27.830Z,3.95
2018-12-19T05:59:58.258Z,4.28
2018-12-19T06:02:28.648Z,3.60
2018-12-19T06:04:59.070Z,3.62
2018-12-19T06:07:29.495Z,3.92
2018-12-19T06:09:59.815Z,3.65
2018-12-19T06:12:30.145Z,3.75
2018-12-19T06:15:00.576Z,3.17
2018-12-19T06:17:30.841Z,4.03
2018-12-19T06:20:01.888Z,4.17
2018-12-19T06:22:32.309Z,3.30
2018-12-19T06:25:03.533Z,3.60
2018-12-19T06:27:33.988Z,3.13
2018-12-19T06:30:04.651Z,3.20
2018-12-19T06:32:35.106Z,3.40
2018-12-19T06:35:05.571Z,3.30
2018-12-19T06:37:36.504Z,3.40
2018-12-19T06:40:07.607Z,4.30
2018-12-19T06:42:38.185Z,3.67
2018-12-19T06:45:09.312Z,4.23
2018-12-19T06:47:39.625Z,3.77
2018-12-19T06:50:10.765Z,4.43
2018-12-19T06:52:41.292Z,4.43
2018-12-19T06:55:11.751Z,3.97
2018-12-19T06:57:42.100Z,4.63
2018-12-19T07:00:12.501Z,5.03
2018-12-19T07:02:42.957Z,5.30
2018-12-19T07:05:13.426Z,5.23
2018-12-19T07:07:43.904Z,5.10
2018-12-19T07:10:14.309Z,5.30
2018-12-19T07:12:45.080Z,4.83
2018-12-19T07:15:15.531Z,5.33
2018-12-19T07:17:47.296Z,5.50
2018-12-19T07:20:18.626Z,6.63
2018-12-19T07:22:49.227Z,6.23
2018-12-19T07:25:19.693Z,6.07
2018-12-19T07:27:50.273Z,6.00
2018-12-19T07:30:20.721Z,6.00
2018-12-19T07:32:51.376Z,6.70
2018-12-19T07:35:21.602Z,5.23
2018-12-19T07:37:53.230Z,5.60
2018-12-19T07:40:23.805Z,6.47
2018-12-19T07:42:54.300Z,7.10
2018-12-19T07:45:25.918Z,7.37
2018-12-19T07:47:56.361Z,6.80
2018-12-19T07:50:26.919Z,7.40
2018-12-19T07:52:57.507Z,7.33
2018-12-19T07:55:29.898Z,8.10
2018-12-19T07:58:00.236Z,6.83
2018-12-19T08:00:30.506Z,7.17
2018-12-19T08:03:00.994Z,6.63
2018-12-19T08:05:31.658Z,7.37
2018-12-19T08:08:01.777Z,6.67
2018-12-19T08:10:32.007Z,7.73
2018-12-19T08:13:02.524Z,7.50
2018-12-19T08:15:32.799Z,7.00
2018-12-19T08:18:03.251Z,6.60
2018-12-19T08:20:34.499Z,6.60
2018-12-19T08:23:04.855Z,6.67
2018-12-19T08:25:36.212Z,7.87
2018-12-19T08:28:06.541Z,6.90
2018-12-19T08:30:36.775Z,7.57
2018-12-19T08:33:07.294Z,7.80
2018-12-19T08:35:37.745Z,7.43
2018-12-19T08:38:08.557Z,7.40
2018-12-19T08:40:39.073Z,7.07
2018-12-19T08:43:09.432Z,6.43
2018-12-19T08:45:40.109Z,6.67
2018-12-19T08:48:10.521Z,6.30
2018-12-19T08:50:41.120Z,6.83
2018-12-19T08:53:11.521Z,6.10
2018-12-19T08:55:41.972Z,6.50
2018-12-19T08:58:12.492Z,6.70
2018-12-19T09:00:42.750Z,6.27
2018-12-19T09:03:13.380Z,6.03
2018-12-19T09:05:43.734Z,5.67
2018-12-19T09:08:14.094Z,5.77
2018-12-19T09:10:44.862Z,5.43
2018-12-19T09:13:15.190Z,5.07
2018-12-19T09:15:51.770Z,5.47
2018-12-19T09:18:22.189Z,5.10
2018-12-19T09:20:53.702Z,5.27
2018-12-19T09:23:24.231Z,6.50
2018-12-19T09:25:54.463Z,4.97
2018-12-19T09:28:24.919Z,5.27
2018-12-19T09:30:55.353Z,5.13
2018-12-19T09:33:27.518Z,4.87
2018-12-19T09:35:58.043Z,4.97
2018-12-19T09:38:29.436Z,5.10
2018-12-19T09:40:59.976Z,4.33
2018-12-19T09:43:30.464Z,4.93
2018-12-19T09:46:01.098Z,4.83
2018-12-19T09:48:31.345Z,5.13
2018-12-19T09:51:01.733Z,4.50
2018-12-19T09:53:32.126Z,4.27
2018-12-19T09:56:02.742Z,4.57
2018-12-19T09:58:33.158Z,4.40
2018-12-19T10:01:05.430Z,5.43
2018-12-19T10:03:35.985Z,5.40
2018-12-19T10:06:06.396Z,4.70
2018-12-19T10:08:36.819Z,5.23
2018-12-19T10:11:07.147Z,4.80
2018-12-19T10:13:37.470Z,4.77
2018-12-19T10:16:08.313Z,4.87
2018-12-19T10:18:38.529Z,4.77
2018-12-19T10:21:09.016Z,4.43
2018-12-19T10:23:39.680Z,4.73
2018-12-19T10:26:12.744Z,4.40
2018-12-19T10:28:43.227Z,4.60
2018-12-19T10:31:13.567Z,4.23
2018-12-19T10:33:43.776Z,3.93
2018-12-19T10:36:15.029Z,4.10
2018-12-19T10:38:47.188Z,3.87
2018-12-19T10:41:17.801Z,4.77
2018-12-19T10:43:48.179Z,4.00
2018-12-19T10:46:18.746Z,3.47
2018-12-19T10:48:49.215Z,4.27
2018-12-19T10:51:19.512Z,3.70
2018-12-19T10:53:49.844Z,3.87
2018-12-19T10:56:20.144Z,4.27
2018-12-19T10:58:50.513Z,3.53
2018-12-19T11:01:20.765Z,3.87
2018-12-19T11:03:51.283Z,3.80
2018-12-19T11:06:21.702Z,4.00
2018-12-19T11:08:51.934Z,3.30
2018-12-19T11:11:22.342Z,3.73
2018-12-19T11:13:52.692Z,3.27
2018-12-19T11:16:23.225Z,2.93
2018-12-19T11:18:53.593Z,3.53
2018-12-19T11:21:25.768Z,3.53
2018-12-19T11:23:56.310Z,3.10
2018-12-19T11:26:27.450Z,3.20
2018-12-19T11:28:58.500Z,2.73
2018-12-19T11:31:28.757Z,2.73
2018-12-19T11:33:59.124Z,2.43
2018-12-19T11:36:29.626Z,2.60
2018-12-19T11:39:00.444Z,2.50
2018-12-19T11:41:31.045Z,2.50
2018-12-19T11:44:01.528Z,2.47
2018-12-19T11:46:31.853Z,2.40
2018-12-19T11:49:02.086Z,2.63
2018-12-19T11:51:32.190Z,3.13
2018-12-19T11:54:02.420Z,2.60
2018-12-19T11:56:33.861Z,2.87
2018-12-19T11:59:04.234Z,2.70
2018-12-19T12:01:34.442Z,3.23
2018-12-19T12:04:04.867Z,2.83
2018-12-19T12:06:37.374Z,3.40
2018-12-19T12:09:08.370Z,3.47
2018-12-19T12:11:38.609Z,9.63
2018-12-19T12:14:09.033Z,5.07
2018-12-19T12:16:39.229Z,4.20
2018-12-19T12:19:09.682Z,3.43
2018-12-19T12:21:40.342Z,3.50
2018-12-19T12:24:10.852Z,3.07
2018-12-19T12:26:41.593Z,2.63
2018-12-19T12:29:12.023Z,2.70
2018-12-19T12:31:42.246Z,3.10
2018-12-19T12:34:12.477Z,2.47
2018-12-19T12:36:42.889Z,2.43
2018-12-19T12:39:14.162Z,2.47
2018-12-19T12:41:44.559Z,2.70
2018-12-19T12:44:14.997Z,2.40
2018-12-19T12:46:45.345Z,2.50
2018-12-19T12:49:15.673Z,2.70
2018-12-19T12:51:46.086Z,2.63
2018-12-19T12:54:16.502Z,2.23
2018-12-19T12:56:46.992Z,2.70
2018-12-19T12:59:17.592Z,2.57
2018-12-19T13:01:48.017Z,2.30
2018-12-19T13:04:18.545Z,2.23
2018-12-19T13:06:49.948Z,2.27
2018-12-19T13:09:20.242Z,2.20
2018-12-19T13:11:50.829Z,2.27
2018-12-19T13:14:21.533Z,2.20
2018-12-19T13:16:51.956Z,2.30
2018-12-19T13:19:22.431Z,2.07
2018-12-19T13:21:53.701Z,1.70
2018-12-19T13:24:24.239Z,2.47
2018-12-19T13:26:54.565Z,1.87
2018-12-19T13:29:24.893Z,2.03
2018-12-19T13:31:55.211Z,2.53
2018-12-19T13:34:25.709Z,1.83
2018-12-19T13:36:56.170Z,1.60
2018-12-19T13:39:26.898Z,2.10
2018-12-19T13:41:57.343Z,1.60
2018-12-19T13:44:27.858Z,1.73
2018-12-19T13:46:58.246Z,1.83
2018-12-19T13:49:28.702Z,1.87
2018-12-19T13:51:59.152Z,1.90
2018-12-19T13:54:29.481Z,1.97
2018-12-19T13:56:59.740Z,1.73
2018-12-19T13:59:30.228Z,2.00
2018-12-19T14:02:00.581Z,2.00
2018-12-19T14:04:31.252Z,2.23
2018-12-19T14:07:01.860Z,1.60
2018-12-19T14:09:32.369Z,2.00
2018-12-19T14:12:02.580Z,1.70
2018-12-19T14:14:32.832Z,1.50
2018-12-19T14:17:03.275Z,2.00
2018-12-19T14:19:33.670Z,1.60
2018-12-19T14:22:05.003Z,2.07
2018-12-19T14:24:35.379Z,1.50
2018-12-19T14:27:05.786Z,1.60
2018-12-19T14:29:36.097Z,1.92
2018-12-19T14:32:06.625Z,2.03
2018-12-19T14:34:36.981Z,2.08
2018-12-19T14:37:07.321Z,1.80
2018-12-19T14:39:39.319Z,1.90
2018-12-19T14:42:09.806Z,1.70
2018-12-19T14:44:40.104Z,1.95
2018-12-19T14:47:10.452Z,1.60
2018-12-19T14:49:40.673Z,1.70
2018-12-19T14:52:11.184Z,1.30
2018-12-19T14:54:41.536Z,1.70
2018-12-19T14:57:11.969Z,1.60
2018-12-19T14:59:42.209Z,1.72
2018-12-19T15:02:12.729Z,2.00
2018-12-19T15:04:44.110Z,1.30
2018-12-19T15:07:14.482Z,1.50
2018-12-19T15:09:45.087Z,1.65
2018-12-19T15:12:15.645Z,1.90
2018-12-19T15:14:46.811Z,1.82
2018-12-19T15:17:17.269Z,1.43
2018-12-19T15:19:47.778Z,1.57
2018-12-19T15:22:19.505Z,1.57
2018-12-19T15:24:49.934Z,1.80
2018-12-19T15:27:20.401Z,1.50
2018-12-19T15:29:50.735Z,1.70
2018-12-19T15:32:21.038Z,1.50
2018-12-19T15:34:51.369Z,1.52
2018-12-19T15:37:21.724Z,1.67
2018-12-19T15:39:53.141Z,1.55
2018-12-19T15:42:23.712Z,1.70
2018-12-19T15:44:54.056Z,1.77
2018-12-19T15:47:24.528Z,1.80
2018-12-19T15:49:54.967Z,1.57
2018-12-19T15:52:25.911Z,2.70
2018-12-19T15:54:56.458Z,1.75
2018-12-19T15:57:27.964Z,2.17
2018-12-19T15:59:58.338Z,2.10
2018-12-19T16:02:28.709Z,1.97
2018-12-19T16:04:59.232Z,1.60
2018-12-19T16:07:30.456Z,2.05
2018-12-19T16:10:00.815Z,1.90
2018-12-19T16:12:31.284Z,1.95
2018-12-19T16:15:01.827Z,2.02
2018-12-19T16:17:34.036Z,2.70
2018-12-19T16:20:04.815Z,2.10
2018-12-19T16:22:35.430Z,2.02
2018-12-19T16:25:06.102Z,1.90
2018-12-19T16:27:36.627Z,1.60
2018-12-19T16:30:08.569Z,1.73
2018-12-19T16:32:38.725Z,1.72
2018-12-19T16:35:09.168Z,1.75
2018-12-19T16:37:39.635Z,1.80
2018-12-19T16:40:10.741Z,1.63
2018-12-19T16:42:46.017Z,1.70
2018-12-19T16:45:15.088Z,2.22
2018-12-19T16:47:49.250Z,1.62
2018-12-19T16:50:19.709Z,1.65
2018-12-19T16:52:50.250Z,1.60
2018-12-19T16:55:20.660Z,2.37
2018-12-19T16:57:51.505Z,1.87
2018-12-19T17:00:22.187Z,7.70
2018-12-19T17:02:52.644Z,3.23
2018-12-19T17:05:24.012Z,2.15
2018-12-19T17:07:54.409Z,1.90
2018-12-19T17:10:25.107Z,2.00
2018-12-19T17:12:55.644Z,2.30
2018-12-19T17:15:37.481Z,2.05
2018-12-19T17:18:08.067Z,1.83
2018-12-19T17:20:39.496Z,1.90
2018-12-19T17:23:09.878Z,2.10
2018-12-19T17:25:40.458Z,2.02
2018-12-19T17:28:10.992Z,2.17
2018-12-19T17:30:41.357Z,2.27
2018-12-19T17:33:14.365Z,1.62
2018-12-19T17:35:44.765Z,1.62
2018-12-19T17:38:15.382Z,1.80
2018-12-19T17:40:47.075Z,1.40
2018-12-19T17:43:17.500Z,1.87
2018-12-19T17:45:51.887Z,1.92
2018-12-19T17:48:22.120Z,1.70
2018-12-19T17:50:52.429Z,1.70
2018-12-19T17:53:22.872Z,2.00
2018-12-19T17:55:57.288Z,2.45
2018-12-19T17:58:27.632Z,2.50
2018-12-19T18:00:58.066Z,2.05
2018-12-19T18:03:31.412Z,2.20
2018-12-19T18:06:01.942Z,2.17
2018-12-19T18:08:32.395Z,2.17
2018-12-19T18:11:03.344Z,2.77
2018-12-19T18:13:33.791Z,2.25
2018-12-19T18:16:04.189Z,2.60
2018-12-19T18:18:34.721Z,3.10
2018-12-19T18:21:05.047Z,2.80
2018-12-19T18:23:36.471Z,2.63
2018-12-19T18:26:06.949Z,2.87
2018-12-19T18:28:37.367Z,3.20
2018-12-19T18:31:07.679Z,3.12
2018-12-19T18:33:38.120Z,2.83
2018-12-19T18:36:08.569Z,2.77
2018-12-19T18:38:39.276Z,2.80
2018-12-19T18:41:09.810Z,3.40
2018-12-19T18:43:40.250Z,2.80
2018-12-19T18:46:10.620Z,2.10
2018-12-19T18:48:44.839Z,3.10
2018-12-19T18:51:15.728Z,4.03
2018-12-19T18:53:46.265Z,4.03
2018-12-19T18:56:16.515Z,2.92
2018-12-19T18:58:47.067Z,3.02
2018-12-19T19:01:17.359Z,2.57
2018-12-19T19:03:47.625Z,2.65
2018-12-19T19:06:18.330Z,3.10
2018-12-19T19:08:49.009Z,2.92
2018-12-19T19:11:19.992Z,2.90
2018-12-19T19:13:50.305Z,2.70
2018-12-19T19:16:20.674Z,2.93
2018-12-19T19:18:51.073Z,2.70
2018-12-19T19:21:21.543Z,2.43
2018-12-19T19:23:52.350Z,2.47
2018-12-19T19:26:22.967Z,2.93
2018-12-19T19:28:53.532Z,2.60
2018-12-19T19:31:24.026Z,2.90
2018-12-19T19:33:54.432Z,3.00
2018-12-19T19:36:25.180Z,2.90
2018-12-19T19:38:55.492Z,2.75
2018-12-19T19:41:26.582Z,2.33
2018-12-19T19:43:56.899Z,3.00
2018-12-19T19:46:27.840Z,3.52
2018-12-19T19:48:58.299Z,3.77
2018-12-19T19:51:28.708Z,2.80
2018-12-19T19:53:59.244Z,3.12
2018-12-19T19:56:29.576Z,3.00
2018-12-19T19:59:00.105Z,4.03
2018-12-19T20:01:30.727Z,4.80
2018-12-19T20:04:01.133Z,3.90
2018-12-19T20:06:31.525Z,3.20
2018-12-19T20:09:01.810Z,3.30
2018-12-19T20:11:34.463Z,3.75
2018-12-19T20:14:07.193Z,3.00
2018-12-19T20:16:44.730Z,3.47
2018-12-19T20:19:15.272Z,2.87
2018-12-19T20:21:46.766Z,2.70
2018-12-19T20:24:17.976Z,3.22
2018-12-19T20:26:48.529Z,2.77
2018-12-19T20:29:18.820Z,2.35
2018-12-19T20:31:49.398Z,2.52
2018-12-19T20:34:19.793Z,2.90
2018-12-19T20:36:50.248Z,2.75
2018-12-19T20:39:20.468Z,3.00
2018-12-19T20:41:52.027Z,2.65
2018-12-19T20:44:22.589Z,2.45
2018-12-19T20:46:52.801Z,2.60
2018-12-19T20:49:23.327Z,3.00
2018-12-19T20:51:53.686Z,3.20
2018-12-19T20:54:24.083Z,2.87
2018-12-19T20:56:54.751Z,2.90
2018-12-19T20:59:25.211Z,2.92
2018-12-19T21:01:55.806Z,3.57
2018-12-19T21:04:27.336Z,3.62
2018-12-19T21:06:57.709Z,4.40
2018-12-19T21:09:28.237Z,4.10
2018-12-19T21:11:58.649Z,3.10
2018-12-19T21:14:29.246Z,3.67
2018-12-19T21:18:06.870Z,4.70
2018-12-19T21:20:37.457Z,6.37
2018-12-19T21:23:08.009Z,6.10
2018-12-19T21:25:41.139Z,6.03
2018-12-19T21:28:12.885Z,5.17
2018-12-19T21:30:43.316Z,5.20
2018-12-19T21:33:14.263Z,4.30
2018-12-19T21:35:44.782Z,4.30
2018-12-19T21:38:15.224Z,3.70
2018-12-19T21:40:45.723Z,3.87
2018-12-19T21:43:17.043Z,3.92
2018-12-19T21:45:51.813Z,4.00
2018-12-19T21:48:20.072Z,4.37
2018-12-19T21:50:50.511Z,3.85
2018-12-19T21:53:20.838Z,4.00
2018-12-19T21:55:52.327Z,3.83
2018-12-19T21:58:22.822Z,4.60
2018-12-19T22:00:53.505Z,4.15
2018-12-19T22:03:23.774Z,4.00
2018-12-19T22:05:55.370Z,4.00
2018-12-19T22:11:08.837Z,5.08
2018-12-19T22:13:39.313Z,3.77
2018-12-19T22:16:11.844Z,4.23
2018-12-19T22:18:47.026Z,4.85
2018-12-19T22:21:17.998Z,4.90
2018-12-19T22:23:48.541Z,4.33
2018-12-19T22:26:19.362Z,4.33
2018-12-19T22:28:50.040Z,3.37
2018-12-19T22:31:20.608Z,3.60
2018-12-19T22:33:51.026Z,2.80
2018-12-19T22:36:21.570Z,2.83
2018-12-19T22:38:52.129Z,3.72
2018-12-19T22:41:22.618Z,3.87
2018-12-19T22:43:53.916Z,3.90
2018-12-19T22:46:24.470Z,3.72
2018-12-19T22:48:54.657Z,3.15
2018-12-19T22:51:26.280Z,3.77
2018-12-19T22:53:56.788Z,3.22
2018-12-19T22:56:27.268Z,3.55
2018-12-19T22:58:57.708Z,3.25
2018-12-19T23:01:33.354Z,3.50
2018-12-19T23:04:07.714Z,3.50
2018-12-19T23:06:38.376Z,3.30
2018-12-19T23:09:09.005Z,3.60
2018-12-19T23:11:39.541Z,3.27
2018-12-19T23:14:15.292Z,3.70
2018-12-19T23:16:48.029Z,3.83
2018-12-19T23:19:24.196Z,3.27
2018-12-19T23:22:00.518Z,3.80
2018-12-19T23:24:36.742Z,3.50
2018-12-19T23:27:10.203Z,3.75
2018-12-19T23:29:42.716Z,3.80
2018-12-19T23:32:16.587Z,4.10
2018-12-19T23:34:47.044Z,3.60
2018-12-19T23:37:17.619Z,3.70
2018-12-19T23:39:48.894Z,3.40
2018-12-19T23:42:19.338Z,3.72
2018-12-19T23:44:51.050Z,3.50
2018-12-19T23:47:21.692Z,3.62
2018-12-19T23:49:52.101Z,3.77
2018-12-19T23:52:22.531Z,3.25
2018-12-19T23:54:52.667Z,3.50
2018-12-19T23:57:23.162Z,3.63
2018-12-19T23:59:53.814Z,4.10
